createdAt,value
2023-02-06T00:01:53.014Z,1.60
2023-02-06T00:04:20.174Z,1.70
2023-02-06T00:06:46.998Z,1.70
2023-02-06T00:09:13.749Z,1.70
2023-02-06T00:11:40.479Z,1.70
2023-02-06T00:14:08.522Z,1.60
2023-02-06T00:16:36.058Z,1.60
2023-02-06T00:19:03.725Z,1.60
2023-02-06T00:21:30.728Z,1.60
2023-02-06T00:24:00.660Z,1.60
2023-02-06T00:26:27.765Z,1.60
2023-02-06T00:28:54.623Z,1.50
2023-02-06T00:31:22.800Z,1.50
2023-02-06T00:33:49.559Z,1.60
2023-02-06T00:36:16.398Z,1.60
2023-02-06T00:38:43.337Z,1.50
2023-02-06T00:41:10.298Z,1.40
2023-02-06T00:43:37.045Z,1.40
2023-02-06T00:46:04.001Z,1.40
2023-02-06T00:48:32.110Z,1.30
2023-02-06T00:50:58.844Z,1.30
2023-02-06T00:53:25.520Z,1.40
2023-02-06T00:55:52.268Z,1.40
2023-02-06T00:58:18.992Z,1.30
2023-02-06T01:00:45.719Z,1.30
2023-02-06T01:03:12.693Z,1.30
2023-02-06T01:05:40.729Z,1.30
2023-02-06T01:08:07.458Z,1.10
2023-02-06T01:10:34.208Z,1.10
2023-02-06T01:13:01.013Z,1.00
2023-02-06T01:15:28.089Z,0.90
2023-02-06T01:17:54.822Z,0.90
2023-02-06T01:20:21.607Z,0.80
2023-02-06T01:22:49.739Z,0.90
2023-02-06T01:25:16.747Z,1.00
2023-02-06T01:27:43.533Z,1.00
2023-02-06T01:30:11.520Z,1.00
2023-02-06T01:32:38.658Z,1.00
2023-02-06T01:35:06.902Z,1.00
2023-02-06T01:37:33.761Z,1.00
2023-02-06T01:40:01.909Z,1.00
2023-02-06T01:42:28.649Z,0.90
2023-02-06T01:45:34.323Z,0.90
2023-02-06T01:48:04.242Z,0.90
2023-02-06T01:50:33.278Z,1.00
2023-02-06T01:53:00.998Z,1.00
2023-02-06T01:55:29.595Z,1.00
2023-02-06T01:57:56.430Z,1.00
2023-02-06T02:00:23.366Z,1.00
2023-02-06T02:02:50.379Z,1.00
2023-02-06T02:05:18.276Z,1.00
2023-02-06T02:07:50.385Z,0.90
2023-02-06T02:10:17.284Z,0.90
2023-02-06T02:12:45.348Z,0.90
2023-02-06T02:15:12.357Z,0.90
2023-02-06T02:17:47.498Z,0.90
2023-02-06T02:20:36.030Z,0.90
2023-02-06T02:23:14.942Z,0.90
2023-02-06T02:26:08.960Z,0.90
2023-02-06T02:29:05.399Z,0.90
2023-02-06T02:32:01.280Z,0.90
2023-02-06T02:35:01.497Z,0.90
2023-02-06T02:37:36.652Z,0.80
2023-02-06T02:40:14.736Z,0.80
2023-02-06T02:42:48.914Z,0.80
2023-02-06T02:45:21.511Z,0.80
2023-02-06T02:47:55.848Z,0.80
2023-02-06T02:50:25.010Z,0.80
2023-02-06T02:52:52.452Z,0.80
2023-02-06T02:55:22.590Z,0.70
2023-02-06T02:57:52.966Z,0.80
2023-02-06T03:00:21.285Z,0.80
2023-02-06T03:02:50.422Z,0.80
2023-02-06T03:05:20.205Z,0.80
2023-02-06T03:08:00.666Z,0.70
2023-02-06T03:10:32.802Z,0.70
2023-02-06T03:13:07.119Z,0.70
2023-02-06T03:15:39.953Z,0.70
2023-02-06T03:18:12.271Z,0.60
2023-02-06T03:20:42.016Z,0.70
2023-02-06T03:23:14.637Z,0.70
2023-02-06T03:25:45.055Z,0.70
2023-02-06T03:28:17.230Z,0.70
2023-02-06T03:30:44.803Z,0.70
2023-02-06T03:33:15.157Z,0.70
2023-02-06T03:35:42.361Z,0.70
2023-02-06T03:38:10.888Z,0.70
2023-02-06T03:40:40.701Z,0.70
2023-02-06T03:43:08.484Z,0.80
2023-02-06T03:45:39.898Z,0.70
2023-02-06T03:48:10.997Z,0.60
2023-02-06T03:50:42.463Z,0.60
2023-02-06T03:53:12.134Z,0.60
2023-02-06T03:55:40.943Z,0.60
2023-02-06T03:58:11.902Z,0.60
2023-02-06T04:00:40.295Z,0.60
2023-02-06T04:03:09.823Z,0.60
2023-02-06T04:05:37.076Z,0.60
2023-02-06T04:08:04.282Z,0.60
2023-02-06T04:10:32.676Z,0.60
2023-02-06T04:12:59.409Z,0.50
2023-02-06T04:15:26.155Z,0.50
2023-02-06T04:18:00.044Z,0.40
2023-02-06T04:20:28.359Z,0.40
2023-02-06T04:22:55.196Z,0.50
2023-02-06T04:25:21.963Z,0.40
2023-02-06T04:27:50.783Z,0.40
2023-02-06T04:30:17.938Z,0.40
2023-02-06T04:32:44.687Z,0.40
2023-02-06T04:35:11.529Z,0.30
2023-02-06T04:37:38.254Z,0.20
2023-02-06T04:40:05.848Z,0.30
2023-02-06T04:42:32.556Z,0.30
2023-02-06T04:45:00.631Z,0.30
2023-02-06T04:47:27.374Z,0.20
2023-02-06T04:49:54.116Z,0.20
2023-02-06T04:52:20.868Z,0.10
2023-02-06T04:54:47.598Z,0.10
2023-02-06T04:57:14.367Z,0.10
2023-02-06T04:59:41.077Z,0.00
2023-02-06T05:02:09.115Z,0.00
2023-02-06T05:04:35.817Z,0.00
2023-02-06T05:07:04.594Z,0.00
2023-02-06T05:09:32.411Z,0.00
2023-02-06T05:11:59.460Z,-0.10
2023-02-06T05:14:26.405Z,-0.30
2023-02-06T05:16:53.123Z,-0.20
2023-02-06T05:19:21.210Z,-0.20
2023-02-06T05:21:47.957Z,-0.30
2023-02-06T05:24:14.698Z,-0.30
2023-02-06T05:26:41.513Z,-0.30
2023-02-06T05:29:08.432Z,-0.30
2023-02-06T05:31:35.397Z,-0.30
2023-02-06T05:34:02.197Z,-0.40
2023-02-06T05:36:30.286Z,-0.30
2023-02-06T05:38:57.000Z,-0.30
2023-02-06T05:41:23.717Z,-0.40
2023-02-06T05:43:50.434Z,-0.60
2023-02-06T05:46:17.197Z,-0.60
2023-02-06T05:48:43.937Z,-0.60
2023-02-06T05:51:10.668Z,-0.60
2023-02-06T05:53:38.782Z,-0.60
2023-02-06T05:56:06.114Z,-0.60
2023-02-06T05:58:32.868Z,-0.60
2023-02-06T06:00:59.627Z,-0.60
2023-02-06T06:03:26.413Z,-0.60
2023-02-06T06:05:53.963Z,-0.60
2023-02-06T06:08:21.117Z,-0.70
2023-02-06T06:10:51.458Z,-0.60
2023-02-06T06:13:18.221Z,-0.60
2023-02-06T06:15:44.989Z,-0.70
2023-02-06T06:18:11.702Z,-0.80
2023-02-06T06:20:38.423Z,-0.70
2023-02-06T06:23:05.161Z,-0.70
2023-02-06T06:25:31.881Z,-1.00
2023-02-06T06:27:59.944Z,-1.20
2023-02-06T06:30:26.710Z,-1.10
2023-02-06T06:32:53.614Z,-1.10
2023-02-06T06:35:20.478Z,-1.00
2023-02-06T06:37:47.195Z,-0.90
2023-02-06T06:40:13.985Z,-1.00
2023-02-06T06:42:40.703Z,-0.90
2023-02-06T06:45:09.692Z,-0.90
2023-02-06T06:47:36.422Z,-1.00
2023-02-06T06:50:03.364Z,-1.00
2023-02-06T06:52:30.068Z,-1.00
2023-02-06T06:54:56.813Z,-1.10
2023-02-06T06:57:23.847Z,-1.10
2023-02-06T06:59:50.700Z,-1.10
2023-02-06T07:02:18.826Z,-1.10
2023-02-06T07:04:45.662Z,-1.30
2023-02-06T07:07:12.425Z,-1.30
2023-02-06T07:09:39.239Z,-1.20
2023-02-06T07:12:06.433Z,-1.20
2023-02-06T07:14:33.381Z,-1.20
2023-02-06T07:17:00.098Z,-1.20
2023-02-06T07:19:28.241Z,-1.10
2023-02-06T07:21:54.984Z,-1.10
2023-02-06T07:24:22.562Z,-1.10
2023-02-06T07:26:49.262Z,-1.10
2023-02-06T07:29:15.992Z,-1.10
2023-02-06T07:31:42.874Z,-1.10
2023-02-06T07:34:09.673Z,-1.10
2023-02-06T07:36:37.777Z,-1.10
2023-02-06T07:39:04.822Z,-1.00
2023-02-06T07:41:31.519Z,-1.00
2023-02-06T07:43:58.203Z,-1.00
2023-02-06T07:46:24.974Z,-1.00
2023-02-06T07:48:52.014Z,-0.90
2023-02-06T07:51:18.924Z,-0.80
2023-02-06T07:53:48.368Z,-0.80
2023-02-06T07:56:17.161Z,-0.70
2023-02-06T07:58:44.291Z,-0.70
2023-02-06T08:01:11.095Z,-0.80
2023-02-06T08:03:37.920Z,-0.70
2023-02-06T08:06:08.585Z,-0.70
2023-02-06T08:08:35.396Z,-0.70
2023-02-06T08:11:06.704Z,-0.70
2023-02-06T08:13:33.581Z,-0.70
2023-02-06T08:16:03.937Z,-0.60
2023-02-06T08:18:30.662Z,-0.60
2023-02-06T08:21:01.080Z,-0.60
2023-02-06T08:23:27.866Z,-0.50
2023-02-06T08:26:01.689Z,-0.50
2023-02-06T08:28:29.950Z,-0.40
2023-02-06T08:30:56.746Z,-0.40
2023-02-06T08:33:23.564Z,-0.30
2023-02-06T08:35:50.266Z,-0.20
2023-02-06T08:38:16.967Z,-0.20
2023-02-06T08:40:43.728Z,-0.20
2023-02-06T08:43:10.495Z,-0.20
2023-02-06T08:45:38.589Z,-0.10
2023-02-06T08:48:05.566Z,-0.10
2023-02-06T08:50:32.304Z,-0.10
2023-02-06T08:52:59.030Z,0.00
2023-02-06T08:55:25.735Z,0.00
2023-02-06T08:57:52.452Z,0.00
2023-02-06T09:00:20.345Z,0.00
2023-02-06T09:02:48.400Z,0.10
2023-02-06T09:05:15.143Z,0.20
2023-02-06T09:07:41.945Z,0.30
2023-02-06T09:10:18.920Z,0.30
2023-02-06T09:12:52.371Z,0.30
2023-02-06T09:15:19.074Z,0.40
2023-02-06T09:17:45.770Z,0.40
2023-02-06T09:20:14.034Z,0.40
2023-02-06T09:22:40.782Z,0.40
2023-02-06T09:25:08.156Z,0.50
2023-02-06T09:27:35.596Z,0.50
2023-02-06T09:30:03.047Z,0.50
2023-02-06T09:32:29.768Z,0.50
2023-02-06T09:34:56.576Z,0.50
2023-02-06T09:37:24.740Z,0.50
2023-02-06T09:39:51.442Z,0.50
2023-02-06T09:42:27.212Z,0.60
2023-02-06T09:45:01.622Z,0.60
2023-02-06T09:47:30.927Z,0.60
2023-02-06T09:50:00.687Z,0.60
2023-02-06T09:52:45.541Z,0.70
2023-02-06T09:55:23.002Z,0.70
2023-02-06T09:57:54.752Z,0.70
2023-02-06T10:00:34.366Z,0.80
2023-02-06T10:03:26.178Z,0.80
2023-02-06T10:05:59.437Z,0.80
2023-02-06T10:08:34.576Z,0.80
2023-02-06T10:11:07.618Z,0.80
2023-02-06T10:13:38.841Z,0.80
2023-02-06T10:16:21.254Z,0.80
2023-02-06T10:18:52.734Z,0.80
2023-02-06T10:21:27.978Z,0.80
2023-02-06T10:24:00.673Z,0.90
2023-02-06T10:26:28.554Z,0.80
2023-02-06T10:28:59.411Z,0.80
2023-02-06T10:31:45.472Z,0.80
2023-02-06T10:34:25.407Z,0.80
2023-02-06T10:37:05.757Z,0.80
2023-02-06T10:39:49.886Z,0.80
2023-02-06T10:42:22.820Z,0.80
2023-02-06T10:45:03.566Z,0.80
2023-02-06T10:47:42.139Z,0.80
2023-02-06T10:50:22.671Z,0.80
2023-02-06T10:52:50.678Z,0.80
2023-02-06T10:55:22.377Z,0.80
2023-02-06T10:57:54.554Z,0.80
2023-02-06T11:00:24.756Z,0.80
2023-02-06T11:03:05.391Z,0.80
2023-02-06T11:05:34.371Z,0.80
2023-02-06T11:08:09.326Z,0.80
2023-02-06T11:10:37.680Z,0.80
2023-02-06T11:13:07.291Z,0.80
2023-02-06T11:15:39.017Z,0.80
2023-02-06T11:18:10.302Z,0.80
2023-02-06T11:20:41.444Z,0.80
2023-02-06T11:23:17.018Z,0.80
2023-02-06T11:25:46.597Z,0.80
2023-02-06T11:28:17.847Z,0.80
2023-02-06T11:30:55.475Z,0.80
2023-02-06T11:33:25.896Z,0.80
2023-02-06T11:35:55.600Z,0.80
2023-02-06T11:38:24.012Z,0.80
2023-02-06T11:40:57.961Z,0.80
2023-02-06T11:43:25.637Z,0.80
2023-02-06T11:46:12.983Z,0.80
2023-02-06T11:48:42.264Z,0.80
2023-02-06T11:51:09.671Z,0.80
2023-02-06T11:53:37.545Z,0.80
2023-02-06T11:56:15.506Z,0.90
2023-02-06T11:58:42.518Z,0.90
2023-02-06T12:01:18.938Z,0.90
2023-02-06T12:03:52.941Z,0.90
2023-02-06T12:06:24.168Z,0.90
2023-02-06T12:08:52.793Z,0.90
2023-02-06T12:11:25.822Z,0.90
2023-02-06T12:13:56.156Z,0.90
2023-02-06T12:16:24.112Z,0.90
2023-02-06T12:18:53.724Z,0.90
2023-02-06T12:21:27.236Z,0.90
2023-02-06T12:23:57.395Z,0.90
2023-02-06T12:26:29.385Z,0.90
2023-02-06T12:28:59.860Z,0.90
2023-02-06T12:31:36.104Z,0.90
2023-02-06T12:34:10.702Z,0.90
2023-02-06T12:36:42.372Z,0.90
2023-02-06T12:39:17.688Z,0.90
2023-02-06T12:41:56.797Z,0.90
2023-02-06T12:44:29.893Z,0.90
2023-02-06T12:47:01.208Z,0.90
2023-02-06T12:49:32.488Z,0.90
2023-02-06T12:52:06.003Z,0.90
2023-02-06T12:54:37.434Z,0.90
2023-02-06T12:57:12.532Z,0.90
2023-02-06T13:00:02.301Z,0.90
2023-02-06T13:02:51.263Z,0.90
2023-02-06T13:05:22.565Z,1.00
2023-02-06T13:07:50.483Z,1.00
2023-02-06T13:10:20.784Z,1.00
2023-02-06T13:12:55.352Z,1.00
2023-02-06T13:15:25.052Z,1.00
2023-02-06T13:17:51.869Z,1.00
2023-02-06T13:20:19.766Z,1.00
2023-02-06T13:22:48.081Z,1.00
2023-02-06T13:25:47.857Z,1.00
2023-02-06T13:28:55.963Z,1.00
2023-02-06T13:31:28.681Z,1.00
2023-02-06T13:33:58.797Z,1.00
2023-02-06T13:36:40.465Z,1.00
2023-02-06T13:39:15.338Z,1.00
2023-02-06T13:41:42.053Z,1.00
2023-02-06T13:44:18.738Z,1.00
2023-02-06T13:47:25.118Z,1.10
2023-02-06T13:50:46.016Z,1.10
2023-02-06T13:53:32.536Z,1.00
2023-02-06T13:56:15.273Z,1.10
2023-02-06T13:58:47.086Z,1.10
2023-02-06T14:01:20.368Z,1.10
2023-02-06T14:03:49.698Z,1.10
2023-02-06T14:06:36.248Z,1.10
2023-02-06T14:09:13.621Z,1.10
2023-02-06T14:11:53.944Z,1.10
2023-02-06T14:14:35.580Z,1.10
2023-02-06T14:17:13.374Z,1.10
2023-02-06T14:19:46.770Z,1.20
2023-02-06T14:22:24.031Z,1.10
2023-02-06T14:25:16.293Z,1.20
2023-02-06T14:27:58.100Z,1.20
2023-02-06T14:30:32.897Z,1.20
2023-02-06T14:33:13.896Z,1.20
2023-02-06T14:35:57.823Z,1.20
2023-02-06T14:39:03.689Z,1.20
2023-02-06T14:41:31.961Z,1.20
2023-02-06T14:43:59.806Z,1.20
2023-02-06T14:46:27.295Z,1.20
2023-02-06T14:48:57.301Z,1.20
2023-02-06T14:51:27.221Z,1.20
2023-02-06T14:53:56.904Z,1.20
2023-02-06T14:56:29.361Z,1.20
2023-02-06T14:58:56.341Z,1.20
2023-02-06T15:01:26.452Z,1.20
2023-02-06T15:04:09.942Z,1.20
2023-02-06T15:06:38.373Z,1.20
2023-02-06T15:09:06.680Z,1.20
2023-02-06T15:11:34.014Z,1.20
2023-02-06T15:14:03.343Z,1.20
2023-02-06T15:16:30.377Z,1.20
2023-02-06T15:19:18.840Z,1.20
2023-02-06T15:21:45.852Z,1.20
2023-02-06T15:24:29.774Z,1.20
2023-02-06T15:27:02.342Z,1.20
2023-02-06T15:29:29.435Z,1.20
2023-02-06T15:32:01.113Z,1.20
2023-02-06T15:34:29.376Z,1.20
2023-02-06T15:36:56.137Z,1.20
2023-02-06T15:39:23.153Z,1.20
2023-02-06T15:41:51.588Z,1.20
2023-02-06T15:44:24.683Z,1.20
2023-02-06T15:46:52.486Z,1.20
2023-02-06T15:49:32.917Z,1.10
2023-02-06T15:52:01.299Z,1.20
2023-02-06T15:54:29.070Z,1.10
2023-02-06T15:57:01.477Z,1.10
2023-02-06T15:59:28.925Z,1.10
2023-02-06T16:01:57.933Z,1.10
2023-02-06T16:04:30.588Z,1.10
2023-02-06T16:07:06.475Z,1.10
2023-02-06T16:09:39.728Z,1.10
2023-02-06T16:12:07.091Z,1.10
2023-02-06T16:14:36.330Z,1.10
2023-02-06T16:17:05.234Z,1.00
2023-02-06T16:19:45.012Z,1.00
2023-02-06T16:22:22.023Z,1.00
2023-02-06T16:24:49.193Z,1.00
2023-02-06T16:27:19.309Z,1.00
2023-02-06T16:29:49.502Z,1.00
2023-02-06T16:32:18.363Z,1.00
2023-02-06T16:34:46.021Z,0.90
2023-02-06T16:37:14.635Z,0.90
2023-02-06T16:39:44.175Z,0.80
2023-02-06T16:42:13.778Z,0.80
2023-02-06T16:44:45.292Z,0.80
2023-02-06T16:47:14.893Z,0.80
2023-02-06T16:49:41.650Z,0.80
2023-02-06T16:52:10.864Z,0.80
2023-02-06T16:54:38.026Z,0.80
2023-02-06T16:57:11.784Z,0.80
2023-02-06T16:59:38.492Z,0.80
2023-02-06T17:02:11.456Z,0.80
2023-02-06T17:04:38.240Z,0.80
2023-02-06T17:07:05.225Z,0.80
2023-02-06T17:09:31.953Z,0.70
2023-02-06T17:11:59.274Z,0.70
2023-02-06T17:14:27.400Z,0.70
2023-02-06T17:16:55.490Z,0.70
2023-02-06T17:19:22.182Z,0.70
2023-02-06T17:21:48.933Z,0.70
2023-02-06T17:24:15.636Z,0.70
2023-02-06T17:26:42.368Z,0.70
2023-02-06T17:29:12.430Z,0.60
2023-02-06T17:31:40.514Z,0.60
2023-02-06T17:34:07.230Z,0.70
2023-02-06T17:36:33.912Z,0.70
2023-02-06T17:39:01.659Z,0.60
2023-02-06T17:41:28.494Z,0.70
2023-02-06T17:43:55.218Z,0.70
2023-02-06T17:46:22.043Z,0.70
2023-02-06T17:48:50.227Z,0.70
2023-02-06T17:51:16.950Z,0.70
2023-02-06T17:53:43.703Z,0.60
2023-02-06T17:56:12.451Z,0.60
2023-02-06T17:58:39.333Z,0.60
2023-02-06T18:01:10.725Z,0.60
2023-02-06T18:03:37.464Z,0.60
2023-02-06T18:06:06.816Z,0.60
2023-02-06T18:08:33.752Z,0.60
2023-02-06T18:11:00.767Z,0.60
2023-02-06T18:13:27.561Z,0.60
2023-02-06T18:15:56.292Z,0.60
2023-02-06T18:18:24.486Z,0.60
2023-02-06T18:20:51.198Z,0.60
2023-02-06T18:23:19.259Z,0.60
2023-02-06T18:25:46.250Z,0.60
2023-02-06T18:28:13.065Z,0.60
2023-02-06T18:30:40.155Z,0.50
2023-02-06T18:33:07.511Z,0.50
2023-02-06T18:35:37.271Z,0.50
2023-02-06T18:38:04.197Z,0.50
2023-02-06T18:40:32.623Z,0.50
2023-02-06T18:42:59.357Z,0.50
2023-02-06T18:45:27.141Z,0.50
2023-02-06T18:47:53.858Z,0.50
2023-02-06T18:50:21.067Z,0.50
2023-02-06T18:52:48.423Z,0.50
2023-02-06T18:55:15.862Z,0.40
2023-02-06T18:57:43.890Z,0.50
2023-02-06T19:00:13.170Z,0.40
2023-02-06T19:02:40.269Z,0.50
2023-02-06T19:05:07.228Z,0.50
2023-02-06T19:07:34.020Z,0.50
2023-02-06T19:10:03.101Z,0.50
2023-02-06T19:12:29.882Z,0.50
2023-02-06T19:14:58.967Z,0.50
2023-02-06T19:17:27.064Z,0.40
2023-02-06T19:19:54.945Z,0.50
2023-02-06T19:22:21.746Z,0.50
2023-02-06T19:24:48.585Z,0.50
2023-02-06T19:27:15.282Z,0.40
2023-02-06T19:29:42.043Z,0.40
2023-02-06T19:32:10.222Z,0.40
2023-02-06T19:34:39.009Z,0.40
2023-02-06T19:37:07.568Z,0.40
2023-02-06T19:39:35.036Z,0.40
2023-02-06T19:42:03.225Z,0.40
2023-02-06T19:44:31.045Z,0.40
2023-02-06T19:46:57.890Z,0.30
2023-02-06T19:49:26.651Z,0.40
2023-02-06T19:51:53.490Z,0.30
2023-02-06T19:54:20.213Z,0.40
2023-02-06T19:56:47.807Z,0.30
2023-02-06T19:59:16.832Z,0.30
2023-02-06T20:01:44.258Z,0.30
2023-02-06T20:04:11.288Z,0.20
2023-02-06T20:06:39.670Z,0.20
2023-02-06T20:09:06.420Z,0.20
2023-02-06T20:11:33.992Z,0.20
2023-02-06T20:14:00.692Z,0.20
2023-02-06T20:16:29.506Z,0.20
2023-02-06T20:18:57.186Z,0.20
2023-02-06T20:21:26.854Z,0.10
2023-02-06T20:23:56.460Z,0.10
2023-02-06T20:26:25.033Z,0.20
2023-02-06T20:28:51.830Z,0.20
2023-02-06T20:31:19.552Z,0.10
2023-02-06T20:33:47.126Z,0.10
2023-02-06T20:36:15.669Z,0.10
2023-02-06T20:38:42.805Z,0.10
2023-02-06T20:41:11.250Z,0.10
2023-02-06T20:43:37.936Z,0.00
2023-02-06T20:46:05.862Z,0.00
2023-02-06T20:48:32.880Z,-0.10
2023-02-06T20:51:00.470Z,-0.10
2023-02-06T20:53:27.401Z,-0.10
2023-02-06T20:55:54.107Z,-0.10
2023-02-06T20:58:22.412Z,-0.10
2023-02-06T21:00:49.218Z,-0.10
2023-02-06T21:03:16.236Z,-0.10
2023-02-06T21:05:43.247Z,-0.10
2023-02-06T21:08:10.318Z,-0.10
2023-02-06T21:10:37.435Z,-0.10
2023-02-06T21:13:04.303Z,0.00
2023-02-06T21:15:32.393Z,-0.10
2023-02-06T21:17:59.202Z,-0.10
2023-02-06T21:20:25.931Z,-0.10
2023-02-06T21:22:52.664Z,-0.10
2023-02-06T21:25:19.427Z,-0.10
2023-02-06T21:27:46.412Z,-0.10
2023-02-06T21:30:14.016Z,-0.10
2023-02-06T21:32:42.150Z,-0.10
2023-02-06T21:35:10.091Z,-0.10
2023-02-06T21:37:37.138Z,-0.20
2023-02-06T21:40:05.263Z,-0.20
2023-02-06T21:42:32.005Z,-0.20
2023-02-06T21:44:58.724Z,-0.20
2023-02-06T21:47:25.508Z,-0.20
2023-02-06T21:49:53.702Z,-0.20
2023-02-06T21:52:20.545Z,-0.30
2023-02-06T21:54:48.191Z,-0.30
2023-02-06T21:57:15.345Z,-0.30
2023-02-06T21:59:42.097Z,-0.30
2023-02-06T22:02:10.235Z,-0.40
2023-02-06T22:04:36.964Z,-0.40
2023-02-06T22:07:05.304Z,-0.40
2023-02-06T22:09:32.020Z,-0.40
2023-02-06T22:11:58.759Z,-0.40
2023-02-06T22:14:25.814Z,-0.40
2023-02-06T22:16:52.590Z,-0.40
2023-02-06T22:19:19.466Z,-0.40
2023-02-06T22:21:46.249Z,-0.50
2023-02-06T22:24:14.382Z,-0.50
2023-02-06T22:26:41.679Z,-0.50
2023-02-06T22:29:11.150Z,-0.50
2023-02-06T22:31:39.455Z,-0.60
2023-02-06T22:34:06.530Z,-0.60
2023-02-06T22:36:34.363Z,-0.60
2023-02-06T22:39:02.780Z,-0.60
2023-02-06T22:41:30.950Z,-0.60
2023-02-06T22:43:57.750Z,-0.60
2023-02-06T22:46:26.273Z,-0.60
2023-02-06T22:48:53.130Z,-0.70
2023-02-06T22:51:20.800Z,-0.70
2023-02-06T22:53:47.837Z,-0.70
2023-02-06T22:56:16.863Z,-0.70
2023-02-06T22:58:45.194Z,-0.80
2023-02-06T23:01:12.533Z,-0.70
2023-02-06T23:03:39.320Z,-0.80
2023-02-06T23:06:08.414Z,-0.90
2023-02-06T23:08:36.045Z,-0.90
2023-02-06T23:11:03.439Z,-0.90
2023-02-06T23:13:30.208Z,-0.90
2023-02-06T23:15:58.948Z,-1.00
2023-02-06T23:18:26.590Z,-1.00
2023-02-06T23:20:54.610Z,-1.00
2023-02-06T23:23:21.325Z,-1.00
2023-02-06T23:25:48.040Z,-1.00
2023-02-06T23:28:14.804Z,-1.00
2023-02-06T23:30:42.245Z,-1.00
2023-02-06T23:33:10.800Z,-1.10
2023-02-06T23:35:38.454Z,-1.00
2023-02-06T23:38:06.298Z,-1.10
2023-02-06T23:40:33.297Z,-1.10
2023-02-06T23:43:00.483Z,-1.10
2023-02-06T23:45:27.522Z,-1.10
2023-02-06T23:47:54.596Z,-1.10
2023-02-06T23:50:23.452Z,-1.20
2023-02-06T23:52:50.445Z,-1.30
2023-02-06T23:55:17.795Z,-1.20
2023-02-06T23:57:44.933Z,-1.20
